Casstown, Ohio
Current Conditions -  °F | °C
As of 12:56 PM on Monday 24 Nov 2014 (Local Time) from KDAY Reporting Station
Light Rain Light Rain  
Wind Chill: 38°   Ceiling: 2000
Heat Index: 47°   Visibility: 10mi
Dew Point: 40°   Wind: 31mph
Humidity: 77%   Direction: 240°WSW
Pressure: 29.51"   Gusts: 47mph
Location:  40.05°N, 84.13°W
Report Text: KDAY 241756Z 24027G41KT 10SM -RA BKN020 OVC025 08/04 A2951 RMK AO2 PK WND 24044/1737 SLP992 P0000 60017 T00830044 10167 20083 53051
Loading
Personal Weather Stations






























Interactive Weather Map New forecast layout! Learn more

10-Day Weather Forecast

Advertisements
Track Severe Weather on mobile